sensor_id;sensor_type;location;lat;lon;timestamp;temperature;humidity
292;DHT22;23311;48.776;9.162;2023-06-19T00:00:55;24.50;72.80
292;DHT22;23311;48.776;9.162;2023-06-19T00:03:24;24.50;72.90
292;DHT22;23311;48.776;9.162;2023-06-19T00:05:53;24.50;72.80
292;DHT22;23311;48.776;9.162;2023-06-19T00:08:21;24.60;72.80
292;DHT22;23311;48.776;9.162;2023-06-19T00:10:49;24.70;72.40
292;DHT22;23311;48.776;9.162;2023-06-19T00:13:17;24.60;72.70
292;DHT22;23311;48.776;9.162;2023-06-19T00:15:45;24.60;72.70
292;DHT22;23311;48.776;9.162;2023-06-19T00:18:13;24.50;72.80
292;DHT22;23311;48.776;9.162;2023-06-19T00:20:43;24.60;72.70
292;DHT22;23311;48.776;9.162;2023-06-19T00:23:14;24.40;72.80
292;DHT22;23311;48.776;9.162;2023-06-19T00:25:44;24.50;72.80
292;DHT22;23311;48.776;9.162;2023-06-19T00:28:12;24.70;72.40
292;DHT22;23311;48.776;9.162;2023-06-19T00:30:42;24.60;72.30
292;DHT22;23311;48.776;9.162;2023-06-19T00:33:10;24.50;72.50
292;DHT22;23311;48.776;9.162;2023-06-19T00:35:38;24.40;72.80
292;DHT22;23311;48.776;9.162;2023-06-19T00:38:08;24.30;73.40
292;DHT22;23311;48.776;9.162;2023-06-19T00:40:37;24.20;73.60
292;DHT22;23311;48.776;9.162;2023-06-19T00:43:06;24.20;73.70
292;DHT22;23311;48.776;9.162;2023-06-19T00:45:34;24.20;73.80
292;DHT22;23311;48.776;9.162;2023-06-19T00:48:04;24.30;73.80
292;DHT22;23311;48.776;9.162;2023-06-19T00:50:32;24.20;74.00
292;DHT22;23311;48.776;9.162;2023-06-19T00:53:02;24.20;73.80
292;DHT22;23311;48.776;9.162;2023-06-19T00:55:32;24.10;73.90
292;DHT22;23311;48.776;9.162;2023-06-19T00:58:02;24.20;73.90
292;DHT22;23311;48.776;9.162;2023-06-19T01:00:30;24.20;74.00
292;DHT22;23311;48.776;9.162;2023-06-19T01:02:59;24.20;74.10
292;DHT22;23311;48.776;9.162;2023-06-19T01:05:27;24.20;74.20
292;DHT22;23311;48.776;9.162;2023-06-19T01:08:03;24.20;74.40
292;DHT22;23311;48.776;9.162;2023-06-19T01:10:36;24.20;74.40
292;DHT22;23311;48.776;9.162;2023-06-19T01:13:10;24.30;74.30
292;DHT22;23311;48.776;9.162;2023-06-19T01:15:42;24.40;74.00
292;DHT22;23311;48.776;9.162;2023-06-19T01:18:10;24.60;72.70
292;DHT22;23311;48.776;9.162;2023-06-19T01:20:39;24.70;72.50
292;DHT22;23311;48.776;9.162;2023-06-19T01:23:10;24.60;72.70
292;DHT22;23311;48.776;9.162;2023-06-19T01:25:38;24.50;73.00
292;DHT22;23311;48.776;9.162;2023-06-19T01:28:09;24.40;73.80
292;DHT22;23311;48.776;9.162;2023-06-19T01:30:43;24.30;74.20
292;DHT22;23311;48.776;9.162;2023-06-19T01:33:18;24.10;74.70
292;DHT22;23311;48.776;9.162;2023-06-19T01:35:47;24.00;75.10
292;DHT22;23311;48.776;9.162;2023-06-19T01:38:19;23.90;75.60
292;DHT22;23311;48.776;9.162;2023-06-19T01:40:49;23.80;75.80
292;DHT22;23311;48.776;9.162;2023-06-19T01:43:18;23.80;76.10
292;DHT22;23311;48.776;9.162;2023-06-19T01:45:46;23.70;76.70
292;DHT22;23311;48.776;9.162;2023-06-19T01:48:14;23.70;77.00
292;DHT22;23311;48.776;9.162;2023-06-19T01:50:45;23.60;77.10
292;DHT22;23311;48.776;9.162;2023-06-19T01:53:14;23.60;77.30
292;DHT22;23311;48.776;9.162;2023-06-19T01:55:43;23.50;77.60
292;DHT22;23311;48.776;9.162;2023-06-19T01:58:11;23.50;78.50
292;DHT22;23311;48.776;9.162;2023-06-19T02:00:39;23.50;78.80
292;DHT22;23311;48.776;9.162;2023-06-19T02:03:07;23.50;79.20
292;DHT22;23311;48.776;9.162;2023-06-19T02:05:35;23.40;79.40
292;DHT22;23311;48.776;9.162;2023-06-19T02:08:06;23.40;79.70
292;DHT22;23311;48.776;9.162;2023-06-19T02:10:34;23.30;80.00
292;DHT22;23311;48.776;9.162;2023-06-19T02:13:04;23.30;80.20
292;DHT22;23311;48.776;9.162;2023-06-19T02:15:32;23.20;80.60
292;DHT22;23311;48.776;9.162;2023-06-19T02:18:00;23.20;80.80
292;DHT22;23311;48.776;9.162;2023-06-19T02:20:28;23.20;81.20
292;DHT22;23311;48.776;9.162;2023-06-19T02:22:56;23.10;81.50
292;DHT22;23311;48.776;9.162;2023-06-19T02:25:24;23.10;81.70
292;DHT22;23311;48.776;9.162;2023-06-19T02:27:52;23.10;81.80
292;DHT22;23311;48.776;9.162;2023-06-19T02:30:21;23.00;82.00
292;DHT22;23311;48.776;9.162;2023-06-19T02:32:50;23.00;82.20
292;DHT22;23311;48.776;9.162;2023-06-19T02:35:18;22.90;82.30
292;DHT22;23311;48.776;9.162;2023-06-19T02:37:47;22.90;82.60
292;DHT22;23311;48.776;9.162;2023-06-19T02:40:15;22.90;82.70
292;DHT22;23311;48.776;9.162;2023-06-19T02:42:43;22.80;82.80
292;DHT22;23311;48.776;9.162;2023-06-19T02:45:11;22.80;83.00
292;DHT22;23311;48.776;9.162;2023-06-19T02:47:41;22.80;83.10
292;DHT22;23311;48.776;9.162;2023-06-19T02:50:09;22.80;83.20
292;DHT22;23311;48.776;9.162;2023-06-19T02:52:37;22.70;83.50
292;DHT22;23311;48.776;9.162;2023-06-19T02:55:06;22.70;83.60
292;DHT22;23311;48.776;9.162;2023-06-19T02:57:34;22.70;83.70
292;DHT22;23311;48.776;9.162;2023-06-19T03:00:03;22.70;83.70
292;DHT22;23311;48.776;9.162;2023-06-19T03:02:35;22.70;83.80
292;DHT22;23311;48.776;9.162;2023-06-19T03:05:06;22.70;84.00
292;DHT22;23311;48.776;9.162;2023-06-19T03:07:34;22.70;83.90
292;DHT22;23311;48.776;9.162;2023-06-19T03:10:02;22.80;84.00
292;DHT22;23311;48.776;9.162;2023-06-19T03:12:30;22.70;84.10
292;DHT22;23311;48.776;9.162;2023-06-19T03:14:58;22.70;84.10
292;DHT22;23311;48.776;9.162;2023-06-19T03:17:26;22.70;84.30
292;DHT22;23311;48.776;9.162;2023-06-19T03:19:54;22.70;84.30
292;DHT22;23311;48.776;9.162;2023-06-19T03:22:24;22.80;84.30
292;DHT22;23311;48.776;9.162;2023-06-19T03:24:52;22.80;85.00
292;DHT22;23311;48.776;9.162;2023-06-19T03:27:20;22.70;85.70
292;DHT22;23311;48.776;9.162;2023-06-19T03:29:48;22.60;86.40
292;DHT22;23311;48.776;9.162;2023-06-19T03:32:16;22.40;87.00
292;DHT22;23311;48.776;9.162;2023-06-19T03:34:45;22.30;86.80
292;DHT22;23311;48.776;9.162;2023-06-19T03:37:13;22.30;86.70
292;DHT22;23311;48.776;9.162;2023-06-19T03:39:43;22.40;86.40
292;DHT22;23311;48.776;9.162;2023-06-19T03:42:11;22.40;86.40
292;DHT22;23311;48.776;9.162;2023-06-19T03:44:39;22.40;86.20
292;DHT22;23311;48.776;9.162;2023-06-19T03:47:08;22.40;86.40
292;DHT22;23311;48.776;9.162;2023-06-19T03:49:36;22.30;86.70
292;DHT22;23311;48.776;9.162;2023-06-19T03:52:04;22.30;87.10
292;DHT22;23311;48.776;9.162;2023-06-19T03:54:32;22.20;87.30
292;DHT22;23311;48.776;9.162;2023-06-19T03:57:02;22.20;87.60
292;DHT22;23311;48.776;9.162;2023-06-19T03:59:31;22.20;87.60
292;DHT22;23311;48.776;9.162;2023-06-19T04:01:59;22.10;87.80
292;DHT22;23311;48.776;9.162;2023-06-19T04:04:27;22.10;88.00
292;DHT22;23311;48.776;9.162;2023-06-19T04:06:55;22.10;88.00
292;DHT22;23311;48.776;9.162;2023-06-19T04:09:24;22.10;88.20
292;DHT22;23311;48.776;9.162;2023-06-19T04:11:52;22.10;88.20
292;DHT22;23311;48.776;9.162;2023-06-19T04:14:21;22.10;88.30
292;DHT22;23311;48.776;9.162;2023-06-19T04:16:50;22.10;88.60
292;DHT22;23311;48.776;9.162;2023-06-19T04:19:18;22.00;89.50
292;DHT22;23311;48.776;9.162;2023-06-19T04:21:47;21.80;90.60
292;DHT22;23311;48.776;9.162;2023-06-19T04:24:15;21.70;92.00
292;DHT22;23311;48.776;9.162;2023-06-19T04:26:43;21.70;92.10
292;DHT22;23311;48.776;9.162;2023-06-19T04:29:11;21.70;91.50
292;DHT22;23311;48.776;9.162;2023-06-19T04:31:45;21.80;91.30
292;DHT22;23311;48.776;9.162;2023-06-19T04:34:16;21.80;91.40
292;DHT22;23311;48.776;9.162;2023-06-19T04:36:45;21.80;91.30
292;DHT22;23311;48.776;9.162;2023-06-19T04:39:14;21.80;91.30
292;DHT22;23311;48.776;9.162;2023-06-19T04:41:43;21.90;91.10
292;DHT22;23311;48.776;9.162;2023-06-19T04:44:11;21.80;91.30
292;DHT22;23311;48.776;9.162;2023-06-19T04:46:40;21.90;91.20
292;DHT22;23311;48.776;9.162;2023-06-19T04:49:10;22.00;91.10
292;DHT22;23311;48.776;9.162;2023-06-19T04:51:40;22.30;90.60
292;DHT22;23311;48.776;9.162;2023-06-19T04:54:08;22.50;89.90
292;DHT22;23311;48.776;9.162;2023-06-19T04:56:36;22.80;89.20
292;DHT22;23311;48.776;9.162;2023-06-19T04:59:04;23.10;88.20
292;DHT22;23311;48.776;9.162;2023-06-19T05:01:32;23.30;87.80
292;DHT22;23311;48.776;9.162;2023-06-19T05:04:00;23.30;87.60
292;DHT22;23311;48.776;9.162;2023-06-19T05:06:30;23.70;87.00
292;DHT22;23311;48.776;9.162;2023-06-19T05:08:58;24.10;85.90
292;DHT22;23311;48.776;9.162;2023-06-19T05:11:26;24.20;85.30
292;DHT22;23311;48.776;9.162;2023-06-19T05:13:54;24.30;85.00
292;DHT22;23311;48.776;9.162;2023-06-19T05:16:22;24.50;84.80
292;DHT22;23311;48.776;9.162;2023-06-19T05:18:51;24.50;84.60
292;DHT22;23311;48.776;9.162;2023-06-19T05:21:20;24.60;84.40
292;DHT22;23311;48.776;9.162;2023-06-19T05:23:49;24.50;84.40
292;DHT22;23311;48.776;9.162;2023-06-19T05:26:20;24.40;85.00
292;DHT22;23311;48.776;9.162;2023-06-19T05:28:49;24.10;85.70
292;DHT22;23311;48.776;9.162;2023-06-19T05:31:17;24.10;85.90
292;DHT22;23311;48.776;9.162;2023-06-19T05:33:46;23.90;86.50
292;DHT22;23311;48.776;9.162;2023-06-19T05:36:14;23.80;86.80
292;DHT22;23311;48.776;9.162;2023-06-19T05:38:42;23.60;87.30
292;DHT22;23311;48.776;9.162;2023-06-19T05:41:13;23.60;87.50
292;DHT22;23311;48.776;9.162;2023-06-19T05:43:42;23.50;87.50
292;DHT22;23311;48.776;9.162;2023-06-19T05:46:11;23.50;87.90
292;DHT22;23311;48.776;9.162;2023-06-19T05:48:39;23.70;87.20
292;DHT22;23311;48.776;9.162;2023-06-19T05:51:07;23.90;86.50
292;DHT22;23311;48.776;9.162;2023-06-19T05:53:35;24.70;85.10
292;DHT22;23311;48.776;9.162;2023-06-19T05:56:05;25.40;83.10
292;DHT22;23311;48.776;9.162;2023-06-19T05:58:35;26.10;81.10
292;DHT22;23311;48.776;9.162;2023-06-19T06:01:03;26.40;80.30
292;DHT22;23311;48.776;9.162;2023-06-19T06:03:31;26.40;80.20
292;DHT22;23311;48.776;9.162;2023-06-19T06:05:59;25.70;81.60
292;DHT22;23311;48.776;9.162;2023-06-19T06:08:30;25.50;82.20
292;DHT22;23311;48.776;9.162;2023-06-19T06:10:58;25.60;82.20
292;DHT22;23311;48.776;9.162;2023-06-19T06:13:26;25.60;82.30
292;DHT22;23311;48.776;9.162;2023-06-19T06:15:56;25.70;82.00
292;DHT22;23311;48.776;9.162;2023-06-19T06:18:24;25.80;82.10
292;DHT22;23311;48.776;9.162;2023-06-19T06:20:52;25.90;81.80
292;DHT22;23311;48.776;9.162;2023-06-19T06:23:20;25.50;82.80
292;DHT22;23311;48.776;9.162;2023-06-19T06:25:48;25.60;82.40
292;DHT22;23311;48.776;9.162;2023-06-19T06:28:16;26.10;81.20
292;DHT22;23311;48.776;9.162;2023-06-19T06:30:44;27.00;79.00
292;DHT22;23311;48.776;9.162;2023-06-19T06:33:14;27.80;77.30
292;DHT22;23311;48.776;9.162;2023-06-19T06:35:42;28.40;75.50
292;DHT22;23311;48.776;9.162;2023-06-19T06:38:10;29.60;72.90
292;DHT22;23311;48.776;9.162;2023-06-19T06:40:38;30.60;70.70
292;DHT22;23311;48.776;9.162;2023-06-19T06:43:08;31.40;68.50
292;DHT22;23311;48.776;9.162;2023-06-19T06:45:36;31.30;68.70
292;DHT22;23311;48.776;9.162;2023-06-19T06:48:05;31.40;68.30
292;DHT22;23311;48.776;9.162;2023-06-19T06:50:35;30.70;68.90
292;DHT22;23311;48.776;9.162;2023-06-19T06:53:03;30.50;69.10
292;DHT22;23311;48.776;9.162;2023-06-19T06:55:31;30.10;69.60
292;DHT22;23311;48.776;9.162;2023-06-19T06:57:59;29.00;71.00
292;DHT22;23311;48.776;9.162;2023-06-19T07:00:27;26.90;75.90
292;DHT22;23311;48.776;9.162;2023-06-19T07:02:56;27.00;76.20
292;DHT22;23311;48.776;9.162;2023-06-19T07:05:24;26.90;76.70
292;DHT22;23311;48.776;9.162;2023-06-19T07:07:54;26.80;77.00
292;DHT22;23311;48.776;9.162;2023-06-19T07:10:22;26.80;77.10
292;DHT22;23311;48.776;9.162;2023-06-19T07:12:51;26.70;77.50
292;DHT22;23311;48.776;9.162;2023-06-19T07:15:19;26.80;77.20
292;DHT22;23311;48.776;9.162;2023-06-19T07:17:47;26.60;77.30
292;DHT22;23311;48.776;9.162;2023-06-19T07:20:15;26.50;77.70
292;DHT22;23311;48.776;9.162;2023-06-19T07:22:44;26.50;77.70
292;DHT22;23311;48.776;9.162;2023-06-19T07:25:14;26.50;77.40
292;DHT22;23311;48.776;9.162;2023-06-19T07:27:43;26.90;76.80
292;DHT22;23311;48.776;9.162;2023-06-19T07:30:11;27.40;75.40
292;DHT22;23311;48.776;9.162;2023-06-19T07:32:46;27.60;75.00
292;DHT22;23311;48.776;9.162;2023-06-19T07:35:14;28.70;73.10
292;DHT22;23311;48.776;9.162;2023-06-19T07:37:44;30.50;69.90
292;DHT22;23311;48.776;9.162;2023-06-19T07:40:13;31.90;66.50
292;DHT22;23311;48.776;9.162;2023-06-19T07:42:41;31.30;66.90
292;DHT22;23311;48.776;9.162;2023-06-19T07:45:12;32.30;65.70
292;DHT22;23311;48.776;9.162;2023-06-19T07:47:40;33.70;62.60
292;DHT22;23311;48.776;9.162;2023-06-19T07:50:09;32.90;63.40
292;DHT22;23311;48.776;9.162;2023-06-19T07:52:37;33.40;62.10
292;DHT22;23311;48.776;9.162;2023-06-19T07:55:05;32.10;63.60
292;DHT22;23311;48.776;9.162;2023-06-19T07:57:35;30.20;67.10
292;DHT22;23311;48.776;9.162;2023-06-19T08:00:04;29.50;68.80
292;DHT22;23311;48.776;9.162;2023-06-19T08:02:36;29.00;70.00
292;DHT22;23311;48.776;9.162;2023-06-19T08:05:06;29.20;70.20
292;DHT22;23311;48.776;9.162;2023-06-19T08:07:35;30.20;68.40
292;DHT22;23311;48.776;9.162;2023-06-19T08:10:04;30.90;67.40
292;DHT22;23311;48.776;9.162;2023-06-19T08:12:41;30.60;67.40
292;DHT22;23311;48.776;9.162;2023-06-19T08:15:10;29.70;68.90
292;DHT22;23311;48.776;9.162;2023-06-19T08:17:38;29.40;69.70
292;DHT22;23311;48.776;9.162;2023-06-19T08:20:08;29.00;70.60
292;DHT22;23311;48.776;9.162;2023-06-19T08:22:37;28.90;71.40
292;DHT22;23311;48.776;9.162;2023-06-19T08:25:05;28.80;71.20
292;DHT22;23311;48.776;9.162;2023-06-19T08:27:33;28.50;71.60
292;DHT22;23311;48.776;9.162;2023-06-19T08:30:03;27.60;73.00
292;DHT22;23311;48.776;9.162;2023-06-19T08:32:31;26.70;75.80
292;DHT22;23311;48.776;9.162;2023-06-19T08:35:02;26.40;76.70
292;DHT22;23311;48.776;9.162;2023-06-19T08:37:30;26.70;76.60
292;DHT22;23311;48.776;9.162;2023-06-19T08:39:58;27.10;75.70
292;DHT22;23311;48.776;9.162;2023-06-19T08:42:27;26.80;76.10
292;DHT22;23311;48.776;9.162;2023-06-19T08:44:55;27.20;75.60
292;DHT22;23311;48.776;9.162;2023-06-19T08:47:30;27.60;74.70
292;DHT22;23311;48.776;9.162;2023-06-19T08:49:59;28.60;72.90
292;DHT22;23311;48.776;9.162;2023-06-19T08:52:28;30.10;70.00
292;DHT22;23311;48.776;9.162;2023-06-19T08:54:57;31.20;67.70
292;DHT22;23311;48.776;9.162;2023-06-19T08:57:33;32.00;66.00
292;DHT22;23311;48.776;9.162;2023-06-19T09:00:03;33.60;63.50
292;DHT22;23311;48.776;9.162;2023-06-19T09:02:39;34.80;61.00
292;DHT22;23311;48.776;9.162;2023-06-19T09:05:12;35.00;60.10
292;DHT22;23311;48.776;9.162;2023-06-19T09:07:41;34.40;60.60
292;DHT22;23311;48.776;9.162;2023-06-19T09:10:15;35.60;59.20
292;DHT22;23311;48.776;9.162;2023-06-19T09:12:44;36.30;57.70
292;DHT22;23311;48.776;9.162;2023-06-19T09:15:12;35.50;58.50
292;DHT22;23311;48.776;9.162;2023-06-19T09:17:42;34.50;60.10
292;DHT22;23311;48.776;9.162;2023-06-19T09:20:11;32.50;62.60
292;DHT22;23311;48.776;9.162;2023-06-19T09:22:39;32.30;63.10
292;DHT22;23311;48.776;9.162;2023-06-19T09:25:08;32.30;63.90
292;DHT22;23311;48.776;9.162;2023-06-19T09:27:37;33.00;62.60
292;DHT22;23311;48.776;9.162;2023-06-19T09:30:06;34.00;60.80
292;DHT22;23311;48.776;9.162;2023-06-19T09:32:35;35.40;58.80
292;DHT22;23311;48.776;9.162;2023-06-19T09:35:05;34.60;59.60
292;DHT22;23311;48.776;9.162;2023-06-19T09:37:33;34.30;59.90
292;DHT22;23311;48.776;9.162;2023-06-19T09:40:03;34.00;60.10
292;DHT22;23311;48.776;9.162;2023-06-19T09:42:38;34.90;59.70
292;DHT22;23311;48.776;9.162;2023-06-19T09:45:08;35.70;58.30
292;DHT22;23311;48.776;9.162;2023-06-19T09:47:38;35.30;58.80
292;DHT22;23311;48.776;9.162;2023-06-19T09:50:11;34.50;60.50
292;DHT22;23311;48.776;9.162;2023-06-19T09:52:40;33.50;62.60
292;DHT22;23311;48.776;9.162;2023-06-19T09:55:09;32.20;64.30
292;DHT22;23311;48.776;9.162;2023-06-19T09:57:40;31.10;66.60
292;DHT22;23311;48.776;9.162;2023-06-19T10:00:09;30.90;67.20
292;DHT22;23311;48.776;9.162;2023-06-19T10:02:41;31.40;66.50
292;DHT22;23311;48.776;9.162;2023-06-19T10:05:10;32.80;64.00
292;DHT22;23311;48.776;9.162;2023-06-19T10:07:44;32.30;64.40
292;DHT22;23311;48.776;9.162;2023-06-19T10:10:22;32.30;64.60
292;DHT22;23311;48.776;9.162;2023-06-19T10:12:53;33.60;62.50
292;DHT22;23311;48.776;9.162;2023-06-19T10:15:24;34.10;61.60
292;DHT22;23311;48.776;9.162;2023-06-19T10:17:53;34.00;61.10
292;DHT22;23311;48.776;9.162;2023-06-19T10:20:25;34.20;61.20
292;DHT22;23311;48.776;9.162;2023-06-19T10:23:04;35.30;59.70
292;DHT22;23311;48.776;9.162;2023-06-19T10:25:34;34.30;61.00
292;DHT22;23311;48.776;9.162;2023-06-19T10:28:18;34.70;60.90
292;DHT22;23311;48.776;9.162;2023-06-19T10:30:55;36.30;58.80
292;DHT22;23311;48.776;9.162;2023-06-19T10:33:23;36.20;58.10
292;DHT22;23311;48.776;9.162;2023-06-19T10:35:54;35.40;59.40
292;DHT22;23311;48.776;9.162;2023-06-19T10:38:22;35.20;59.80
292;DHT22;23311;48.776;9.162;2023-06-19T10:40:51;35.00;59.90
292;DHT22;23311;48.776;9.162;2023-06-19T10:43:23;33.60;62.30
292;DHT22;23311;48.776;9.162;2023-06-19T10:45:55;32.50;64.80
292;DHT22;23311;48.776;9.162;2023-06-19T10:48:24;32.00;65.80
292;DHT22;23311;48.776;9.162;2023-06-19T10:50:56;31.70;66.40
292;DHT22;23311;48.776;9.162;2023-06-19T10:53:25;31.30;67.30
292;DHT22;23311;48.776;9.162;2023-06-19T10:55:56;31.30;67.90
292;DHT22;23311;48.776;9.162;2023-06-19T10:58:26;30.90;68.50
292;DHT22;23311;48.776;9.162;2023-06-19T11:00:54;30.40;69.20
292;DHT22;23311;48.776;9.162;2023-06-19T11:03:23;30.20;70.10
292;DHT22;23311;48.776;9.162;2023-06-19T11:05:53;29.90;70.30
292;DHT22;23311;48.776;9.162;2023-06-19T11:08:22;30.10;70.30
292;DHT22;23311;48.776;9.162;2023-06-19T11:10:50;30.70;69.40
292;DHT22;23311;48.776;9.162;2023-06-19T11:13:19;31.70;67.80
292;DHT22;23311;48.776;9.162;2023-06-19T11:15:49;31.70;67.20
292;DHT22;23311;48.776;9.162;2023-06-19T11:18:18;32.60;66.10
292;DHT22;23311;48.776;9.162;2023-06-19T11:20:47;34.20;63.00
292;DHT22;23311;48.776;9.162;2023-06-19T11:23:25;35.70;60.60
292;DHT22;23311;48.776;9.162;2023-06-19T11:25:53;35.70;60.20
292;DHT22;23311;48.776;9.162;2023-06-19T11:28:26;36.50;59.20
292;DHT22;23311;48.776;9.162;2023-06-19T11:30:58;35.40;60.40
292;DHT22;23311;48.776;9.162;2023-06-19T11:33:27;35.60;60.30
292;DHT22;23311;48.776;9.162;2023-06-19T11:36:00;36.40;59.40
292;DHT22;23311;48.776;9.162;2023-06-19T11:38:29;36.90;58.50
292;DHT22;23311;48.776;9.162;2023-06-19T11:40:57;37.30;57.80
292;DHT22;23311;48.776;9.162;2023-06-19T11:43:26;36.90;58.20
292;DHT22;23311;48.776;9.162;2023-06-19T11:46:01;36.60;58.30
292;DHT22;23311;48.776;9.162;2023-06-19T11:48:30;35.90;59.40
292;DHT22;23311;48.776;9.162;2023-06-19T11:50:58;36.60;58.60
292;DHT22;23311;48.776;9.162;2023-06-19T11:53:26;36.10;59.10
292;DHT22;23311;48.776;9.162;2023-06-19T11:55:56;35.10;60.40
292;DHT22;23311;48.776;9.162;2023-06-19T11:58:24;34.10;62.00
292;DHT22;23311;48.776;9.162;2023-06-19T12:00:53;33.20;63.20
292;DHT22;23311;48.776;9.162;2023-06-19T12:03:23;33.20;63.70
292;DHT22;23311;48.776;9.162;2023-06-19T12:05:51;33.30;63.60
292;DHT22;23311;48.776;9.162;2023-06-19T12:08:19;33.30;63.60
292;DHT22;23311;48.776;9.162;2023-06-19T12:10:48;32.80;64.30
292;DHT22;23311;48.776;9.162;2023-06-19T12:13:18;31.90;65.90
292;DHT22;23311;48.776;9.162;2023-06-19T12:15:46;31.50;66.50
292;DHT22;23311;48.776;9.162;2023-06-19T12:18:14;30.90;67.80
292;DHT22;23311;48.776;9.162;2023-06-19T12:20:42;31.10;67.90
292;DHT22;23311;48.776;9.162;2023-06-19T12:23:10;30.50;68.60
292;DHT22;23311;48.776;9.162;2023-06-19T12:25:38;31.70;67.20
292;DHT22;23311;48.776;9.162;2023-06-19T12:28:06;32.70;64.90
292;DHT22;23311;48.776;9.162;2023-06-19T12:30:36;33.30;63.50
292;DHT22;23311;48.776;9.162;2023-06-19T12:33:04;33.40;63.10
292;DHT22;23311;48.776;9.162;2023-06-19T12:35:33;34.40;61.80
292;DHT22;23311;48.776;9.162;2023-06-19T12:38:01;35.10;60.60
292;DHT22;23311;48.776;9.162;2023-06-19T12:40:33;35.50;60.10
292;DHT22;23311;48.776;9.162;2023-06-19T12:43:01;34.90;60.40
292;DHT22;23311;48.776;9.162;2023-06-19T12:45:29;33.70;62.00
292;DHT22;23311;48.776;9.162;2023-06-19T12:47:59;33.40;62.90
292;DHT22;23311;48.776;9.162;2023-06-19T12:50:27;32.60;64.00
292;DHT22;23311;48.776;9.162;2023-06-19T12:52:55;32.80;63.90
292;DHT22;23311;48.776;9.162;2023-06-19T12:55:23;33.10;62.90
292;DHT22;23311;48.776;9.162;2023-06-19T12:57:51;33.40;62.70
292;DHT22;23311;48.776;9.162;2023-06-19T13:00:19;34.20;61.90
292;DHT22;23311;48.776;9.162;2023-06-19T13:02:48;34.90;60.90
292;DHT22;23311;48.776;9.162;2023-06-19T13:05:18;34.90;60.50
292;DHT22;23311;48.776;9.162;2023-06-19T13:07:46;34.70;60.90
292;DHT22;23311;48.776;9.162;2023-06-19T13:10:14;35.50;59.60
292;DHT22;23311;48.776;9.162;2023-06-19T13:12:42;35.10;59.90
292;DHT22;23311;48.776;9.162;2023-06-19T13:15:10;34.80;60.40
292;DHT22;23311;48.776;9.162;2023-06-19T13:17:38;35.20;59.90
292;DHT22;23311;48.776;9.162;2023-06-19T13:20:07;35.80;59.00
292;DHT22;23311;48.776;9.162;2023-06-19T13:22:37;36.30;58.20
292;DHT22;23311;48.776;9.162;2023-06-19T13:25:06;36.40;58.10
292;DHT22;23311;48.776;9.162;2023-06-19T13:27:34;36.70;57.70
292;DHT22;23311;48.776;9.162;2023-06-19T13:30:03;36.50;57.70
292;DHT22;23311;48.776;9.162;2023-06-19T13:32:31;36.70;57.40
292;DHT22;23311;48.776;9.162;2023-06-19T13:35:00;37.20;56.80
292;DHT22;23311;48.776;9.162;2023-06-19T13:37:28;36.90;57.10
292;DHT22;23311;48.776;9.162;2023-06-19T13:39:58;36.50;57.60
292;DHT22;23311;48.776;9.162;2023-06-19T13:42:27;36.30;57.60
292;DHT22;23311;48.776;9.162;2023-06-19T13:44:55;36.10;57.80
292;DHT22;23311;48.776;9.162;2023-06-19T13:47:23;35.10;59.20
292;DHT22;23311;48.776;9.162;2023-06-19T13:49:54;35.00;59.40
292;DHT22;23311;48.776;9.162;2023-06-19T13:52:22;34.30;60.20
292;DHT22;23311;48.776;9.162;2023-06-19T13:54:50;33.80;61.30
292;DHT22;23311;48.776;9.162;2023-06-19T13:57:23;33.90;61.20
292;DHT22;23311;48.776;9.162;2023-06-19T13:59:51;34.80;60.00
292;DHT22;23311;48.776;9.162;2023-06-19T14:02:19;35.50;58.90
292;DHT22;23311;48.776;9.162;2023-06-19T14:04:47;34.80;59.70
292;DHT22;23311;48.776;9.162;2023-06-19T14:07:15;34.30;60.40
292;DHT22;23311;48.776;9.162;2023-06-19T14:09:44;34.20;60.80
292;DHT22;23311;48.776;9.162;2023-06-19T14:12:12;34.70;60.20
292;DHT22;23311;48.776;9.162;2023-06-19T14:14:42;34.40;60.50
292;DHT22;23311;48.776;9.162;2023-06-19T14:17:10;34.30;60.50
292;DHT22;23311;48.776;9.162;2023-06-19T14:19:38;34.10;60.80
292;DHT22;23311;48.776;9.162;2023-06-19T14:22:06;34.40;60.50
292;DHT22;23311;48.776;9.162;2023-06-19T14:24:34;34.90;59.80
292;DHT22;23311;48.776;9.162;2023-06-19T14:27:02;35.70;58.80
292;DHT22;23311;48.776;9.162;2023-06-19T14:29:31;35.50;58.30
292;DHT22;23311;48.776;9.162;2023-06-19T14:32:00;35.40;58.70
292;DHT22;23311;48.776;9.162;2023-06-19T14:34:29;35.50;58.10
292;DHT22;23311;48.776;9.162;2023-06-19T14:36:59;35.10;58.70
292;DHT22;23311;48.776;9.162;2023-06-19T14:39:27;34.20;60.40
292;DHT22;23311;48.776;9.162;2023-06-19T14:41:55;34.60;59.70
292;DHT22;23311;48.776;9.162;2023-06-19T14:44:23;34.40;59.80
292;DHT22;23311;48.776;9.162;2023-06-19T14:46:51;34.60;59.40
292;DHT22;23311;48.776;9.162;2023-06-19T14:49:21;34.80;59.30
292;DHT22;23311;48.776;9.162;2023-06-19T14:51:49;35.10;58.30
292;DHT22;23311;48.776;9.162;2023-06-19T14:54:17;34.60;59.00
292;DHT22;23311;48.776;9.162;2023-06-19T14:56:45;34.50;59.70
292;DHT22;23311;48.776;9.162;2023-06-19T14:59:15;33.80;60.20
292;DHT22;23311;48.776;9.162;2023-06-19T15:01:44;33.70;60.60
292;DHT22;23311;48.776;9.162;2023-06-19T15:04:12;34.00;60.20
292;DHT22;23311;48.776;9.162;2023-06-19T15:06:42;34.50;59.70
292;DHT22;23311;48.776;9.162;2023-06-19T15:09:10;34.90;59.00
292;DHT22;23311;48.776;9.162;2023-06-19T15:11:39;35.30;59.20
292;DHT22;23311;48.776;9.162;2023-06-19T15:14:07;35.70;58.50
292;DHT22;23311;48.776;9.162;2023-06-19T15:16:35;35.50;58.90
292;DHT22;23311;48.776;9.162;2023-06-19T15:19:04;35.40;59.00
292;DHT22;23311;48.776;9.162;2023-06-19T15:21:32;35.40;59.10
292;DHT22;23311;48.776;9.162;2023-06-19T15:24:01;35.40;59.10
292;DHT22;23311;48.776;9.162;2023-06-19T15:26:29;35.50;58.90
292;DHT22;23311;48.776;9.162;2023-06-19T15:28:58;35.00;59.60
292;DHT22;23311;48.776;9.162;2023-06-19T15:31:26;34.50;60.30
292;DHT22;23311;48.776;9.162;2023-06-19T15:33:54;33.70;61.40
292;DHT22;23311;48.776;9.162;2023-06-19T15:36:22;33.50;62.30
292;DHT22;23311;48.776;9.162;2023-06-19T15:38:50;32.90;63.00
292;DHT22;23311;48.776;9.162;2023-06-19T15:41:19;32.80;63.40
292;DHT22;23311;48.776;9.162;2023-06-19T15:43:48;32.80;63.50
292;DHT22;23311;48.776;9.162;2023-06-19T15:46:16;32.70;63.40
292;DHT22;23311;48.776;9.162;2023-06-19T15:48:44;32.70;63.70
292;DHT22;23311;48.776;9.162;2023-06-19T15:51:13;32.90;63.30
292;DHT22;23311;48.776;9.162;2023-06-19T15:53:42;32.80;63.50
292;DHT22;23311;48.776;9.162;2023-06-19T15:56:10;32.80;63.30
292;DHT22;23311;48.776;9.162;2023-06-19T15:58:39;32.80;63.70
292;DHT22;23311;48.776;9.162;2023-06-19T16:01:07;33.10;63.20
292;DHT22;23311;48.776;9.162;2023-06-19T16:03:36;33.00;63.30
292;DHT22;23311;48.776;9.162;2023-06-19T16:06:06;33.10;63.20
292;DHT22;23311;48.776;9.162;2023-06-19T16:08:35;32.70;63.60
292;DHT22;23311;48.776;9.162;2023-06-19T16:11:03;32.50;63.90
292;DHT22;23311;48.776;9.162;2023-06-19T16:13:32;32.20;64.30